sensor_id;sensor_type;location;lat;lon;timestamp;pressure;altitude;pressure_sealevel;temperature;humidity
42603;BME280;28233;55.748;48.752;2023-04-15T00:00:11;100193.66;;;-3.35;37.11
42603;BME280;28233;55.748;48.752;2023-04-15T00:02:17;100198.63;;;-3.39;37.31
42603;BME280;28233;55.748;48.752;2023-04-15T00:04:22;100197.63;;;-3.45;37.41
42603;BME280;28233;55.748;48.752;2023-04-15T00:06:26;100190.63;;;-3.46;37.30
42603;BME280;28233;55.748;48.752;2023-04-15T00:08:29;100202.19;;;-3.45;37.46
42603;BME280;28233;55.748;48.752;2023-04-15T00:10:32;100202.56;;;-3.42;37.73
42603;BME280;28233;55.748;48.752;2023-04-15T00:12:35;100201.94;;;-3.44;37.39
42603;BME280;28233;55.748;48.752;2023-04-15T00:14:38;100210.41;;;-3.40;37.54
42603;BME280;28233;55.748;48.752;2023-04-15T00:16:41;100208.75;;;-3.41;37.07
42603;BME280;28233;55.748;48.752;2023-04-15T00:18:44;100215.16;;;-3.35;37.73
42603;BME280;28233;55.748;48.752;2023-04-15T00:20:47;100213.31;;;-3.42;37.52
42603;BME280;28233;55.748;48.752;2023-04-15T00:22:50;100219.31;;;-3.46;37.38
42603;BME280;28233;55.748;48.752;2023-04-15T00:24:52;100218.94;;;-3.50;37.54
42603;BME280;28233;55.748;48.752;2023-04-15T00:26:55;100217.47;;;-3.46;38.01
42603;BME280;28233;55.748;48.752;2023-04-15T00:28:59;100222.00;;;-3.46;38.18
42603;BME280;28233;55.748;48.752;2023-04-15T00:31:02;100223.25;;;-3.49;37.73
42603;BME280;28233;55.748;48.752;2023-04-15T00:33:05;100216.44;;;-3.51;37.90
42603;BME280;28233;55.748;48.752;2023-04-15T00:35:09;100229.50;;;-3.55;37.96
42603;BME280;28233;55.748;48.752;2023-04-15T00:37:12;100225.31;;;-3.51;37.64
42603;BME280;28233;55.748;48.752;2023-04-15T00:39:15;100213.97;;;-3.53;37.50
42603;BME280;28233;55.748;48.752;2023-04-15T00:41:18;100230.50;;;-3.49;37.77
42603;BME280;28233;55.748;48.752;2023-04-15T00:43:20;100226.38;;;-3.58;38.00
42603;BME280;28233;55.748;48.752;2023-04-15T00:45:25;100237.94;;;-3.58;38.12
42603;BME280;28233;55.748;48.752;2023-04-15T00:47:30;100241.06;;;-3.61;37.61
42603;BME280;28233;55.748;48.752;2023-04-15T00:49:35;100244.38;;;-3.59;37.97
42603;BME280;28233;55.748;48.752;2023-04-15T00:51:37;100250.75;;;-3.60;37.90
42603;BME280;28233;55.748;48.752;2023-04-15T00:53:41;100249.34;;;-3.63;38.24
42603;BME280;28233;55.748;48.752;2023-04-15T00:55:45;100244.56;;;-3.61;37.47
42603;BME280;28233;55.748;48.752;2023-04-15T00:57:47;100248.31;;;-3.62;37.48
42603;BME280;28233;55.748;48.752;2023-04-15T00:59:51;100261.50;;;-3.60;38.00
42603;BME280;28233;55.748;48.752;2023-04-15T01:01:55;100256.38;;;-3.62;37.97
42603;BME280;28233;55.748;48.752;2023-04-15T01:03:58;100263.81;;;-3.64;38.25
42603;BME280;28233;55.748;48.752;2023-04-15T01:06:02;100254.72;;;-3.69;37.96
42603;BME280;28233;55.748;48.752;2023-04-15T01:08:06;100266.31;;;-3.69;38.33
42603;BME280;28233;55.748;48.752;2023-04-15T01:10:09;100267.94;;;-3.68;37.74
42603;BME280;28233;55.748;48.752;2023-04-15T01:12:13;100266.31;;;-3.75;38.59
42603;BME280;28233;55.748;48.752;2023-04-15T01:14:16;100270.25;;;-3.78;38.60
42603;BME280;28233;55.748;48.752;2023-04-15T01:16:20;100263.00;;;-3.77;38.47
42603;BME280;28233;55.748;48.752;2023-04-15T01:18:23;100269.19;;;-3.77;38.10
42603;BME280;28233;55.748;48.752;2023-04-15T01:20:28;100272.31;;;-3.80;38.41
42603;BME280;28233;55.748;48.752;2023-04-15T01:22:32;100268.56;;;-3.79;38.42
42603;BME280;28233;55.748;48.752;2023-04-15T01:24:36;100271.69;;;-3.82;38.78
42603;BME280;28233;55.748;48.752;2023-04-15T01:26:39;100271.88;;;-3.84;37.93
42603;BME280;28233;55.748;48.752;2023-04-15T01:28:45;100273.94;;;-3.79;38.51
42603;BME280;28233;55.748;48.752;2023-04-15T01:30:48;100274.56;;;-3.77;38.31
42603;BME280;28233;55.748;48.752;2023-04-15T01:32:50;100279.53;;;-3.80;38.63
42603;BME280;28233;55.748;48.752;2023-04-15T01:35:12;100284.91;;;-3.87;38.23
42603;BME280;28233;55.748;48.752;2023-04-15T01:37:22;100281.63;;;-3.89;38.44
42603;BME280;28233;55.748;48.752;2023-04-15T01:39:25;100280.78;;;-3.90;38.51
42603;BME280;28233;55.748;48.752;2023-04-15T01:41:27;100287.81;;;-3.89;38.50
42603;BME280;28233;55.748;48.752;2023-04-15T01:43:31;100295.22;;;-3.91;38.76
42603;BME280;28233;55.748;48.752;2023-04-15T01:45:35;100297.28;;;-3.93;39.25
42603;BME280;28233;55.748;48.752;2023-04-15T01:47:40;100292.34;;;-3.96;38.54
42603;BME280;28233;55.748;48.752;2023-04-15T01:49:44;100303.28;;;-3.91;38.98
42603;BME280;28233;55.748;48.752;2023-04-15T01:51:48;100295.66;;;-3.94;38.39
42603;BME280;28233;55.748;48.752;2023-04-15T01:53:52;100292.56;;;-3.91;38.73
42603;BME280;28233;55.748;48.752;2023-04-15T01:55:56;100301.22;;;-3.89;38.99
42603;BME280;28233;55.748;48.752;2023-04-15T01:58:00;100304.53;;;-3.87;38.31
42603;BME280;28233;55.748;48.752;2023-04-15T02:00:06;100304.34;;;-3.85;38.39
42603;BME280;28233;55.748;48.752;2023-04-15T02:02:14;100297.72;;;-3.83;38.32
42603;BME280;28233;55.748;48.752;2023-04-15T02:04:18;100305.16;;;-3.78;38.46
42603;BME280;28233;55.748;48.752;2023-04-15T02:06:23;100312.59;;;-3.73;38.52
42603;BME280;28233;55.748;48.752;2023-04-15T02:08:27;100305.34;;;-3.73;38.00
42603;BME280;28233;55.748;48.752;2023-04-15T02:10:31;100312.78;;;-3.68;38.77
42603;BME280;28233;55.748;48.752;2023-04-15T02:12:35;100309.66;;;-3.72;38.04
42603;BME280;28233;55.748;48.752;2023-04-15T02:14:39;100321.47;;;-3.66;38.92
42603;BME280;28233;55.748;48.752;2023-04-15T02:16:43;100321.22;;;-3.65;38.18
42603;BME280;28233;55.748;48.752;2023-04-15T02:18:47;100323.91;;;-3.65;38.31
42603;BME280;28233;55.748;48.752;2023-04-15T02:20:51;100322.91;;;-3.64;37.76
42603;BME280;28233;55.748;48.752;2023-04-15T02:22:55;100325.16;;;-3.61;37.82
42603;BME280;28233;55.748;48.752;2023-04-15T02:24:59;100329.72;;;-3.61;38.48
42603;BME280;28233;55.748;48.752;2023-04-15T02:27:03;100326.81;;;-3.59;38.26
42603;BME280;28233;55.748;48.752;2023-04-15T02:29:07;100334.66;;;-3.58;38.18
42603;BME280;28233;55.748;48.752;2023-04-15T02:31:11;100325.78;;;-3.52;38.49
42603;BME280;28233;55.748;48.752;2023-04-15T02:33:15;100328.66;;;-3.53;38.32
42603;BME280;28233;55.748;48.752;2023-04-15T02:35:20;100339.22;;;-3.52;38.53
42603;BME280;28233;55.748;48.752;2023-04-15T02:37:24;100340.03;;;-3.51;38.26
42603;BME280;28233;55.748;48.752;2023-04-15T02:39:30;100341.25;;;-3.47;38.62
42603;BME280;28233;55.748;48.752;2023-04-15T02:41:34;100342.72;;;-3.45;37.85
42603;BME280;28233;55.748;48.752;2023-04-15T02:43:39;100348.69;;;-3.43;38.65
42603;BME280;28233;55.748;48.752;2023-04-15T02:45:44;100354.47;;;-3.39;37.99
42603;BME280;28233;55.748;48.752;2023-04-15T02:47:48;100349.50;;;-3.35;38.49
42603;BME280;28233;55.748;48.752;2023-04-15T02:49:53;100354.25;;;-3.31;37.88
42603;BME280;28233;55.748;48.752;2023-04-15T02:51:57;100361.06;;;-3.28;38.01
42603;BME280;28233;55.748;48.752;2023-04-15T02:54:02;100353.81;;;-3.21;38.03
42603;BME280;28233;55.748;48.752;2023-04-15T02:56:06;100359.19;;;-3.21;37.82
42603;BME280;28233;55.748;48.752;2023-04-15T02:58:10;100363.13;;;-3.17;37.56
42603;BME280;28233;55.748;48.752;2023-04-15T03:00:15;100356.06;;;-3.11;37.36
42603;BME280;28233;55.748;48.752;2023-04-15T03:02:19;100363.09;;;-3.10;37.25
42603;BME280;28233;55.748;48.752;2023-04-15T03:04:23;100364.75;;;-3.09;37.17
42603;BME280;28233;55.748;48.752;2023-04-15T03:06:27;100367.81;;;-3.06;37.48
42603;BME280;28233;55.748;48.752;2023-04-15T03:08:32;100377.34;;;-3.03;37.45
42603;BME280;28233;55.748;48.752;2023-04-15T03:10:36;100375.88;;;-2.99;37.44
42603;BME280;28233;55.748;48.752;2023-04-15T03:12:40;100380.59;;;-2.94;37.04
42603;BME280;28233;55.748;48.752;2023-04-15T03:14:44;100379.78;;;-2.88;37.04
42603;BME280;28233;55.748;48.752;2023-04-15T03:16:48;100392.59;;;-2.84;37.21
42603;BME280;28233;55.748;48.752;2023-04-15T03:18:53;100391.94;;;-2.79;36.87
42603;BME280;28233;55.748;48.752;2023-04-15T03:20:57;100387.81;;;-2.75;36.52
42603;BME280;28233;55.748;48.752;2023-04-15T03:23:01;100391.69;;;-2.71;36.31
42603;BME280;28233;55.748;48.752;2023-04-15T03:25:05;100388.00;;;-2.70;36.73
42603;BME280;28233;55.748;48.752;2023-04-15T03:27:09;100394.38;;;-2.64;36.84
42603;BME280;28233;55.748;48.752;2023-04-15T03:29:13;100394.53;;;-2.59;36.61
42603;BME280;28233;55.748;48.752;2023-04-15T03:31:17;100392.03;;;-2.54;36.29
42603;BME280;28233;55.748;48.752;2023-04-15T03:33:21;100393.69;;;-2.53;36.38
42603;BME280;28233;55.748;48.752;2023-04-15T03:35:25;100393.88;;;-2.48;36.56
42603;BME280;28233;55.748;48.752;2023-04-15T03:37:29;100398.00;;;-2.45;35.87
42603;BME280;28233;55.748;48.752;2023-04-15T03:39:34;100398.63;;;-2.43;36.41
42603;BME280;28233;55.748;48.752;2023-04-15T03:41:38;100398.59;;;-2.37;36.55
42603;BME280;28233;55.748;48.752;2023-04-15T03:43:42;100411.84;;;-2.35;36.09
42603;BME280;28233;55.748;48.752;2023-04-15T03:45:46;100402.72;;;-2.34;35.52
42603;BME280;28233;55.748;48.752;2023-04-15T03:47:50;100401.25;;;-2.30;35.83
42603;BME280;28233;55.748;48.752;2023-04-15T03:49:54;100409.50;;;-2.25;35.66
42603;BME280;28233;55.748;48.752;2023-04-15T03:51:58;100399.56;;;-2.24;36.07
42603;BME280;28233;55.748;48.752;2023-04-15T03:54:02;100407.19;;;-2.21;35.83
42603;BME280;28233;55.748;48.752;2023-04-15T03:56:06;100404.69;;;-2.16;35.69
42603;BME280;28233;55.748;48.752;2023-04-15T03:58:10;100417.50;;;-2.11;35.70
42603;BME280;28233;55.748;48.752;2023-04-15T04:00:15;100411.25;;;-2.05;35.05
42603;BME280;28233;55.748;48.752;2023-04-15T04:02:19;100415.16;;;-2.01;35.31
42603;BME280;28233;55.748;48.752;2023-04-15T04:04:23;100412.47;;;-2.01;35.09
42603;BME280;28233;55.748;48.752;2023-04-15T04:06:27;100426.53;;;-1.99;34.86
42603;BME280;28233;55.748;48.752;2023-04-15T04:08:31;100414.31;;;-1.95;35.17
42603;BME280;28233;55.748;48.752;2023-04-15T04:10:36;100419.25;;;-1.92;35.05
42603;BME280;28233;55.748;48.752;2023-04-15T04:12:40;100412.38;;;-1.88;35.27
42603;BME280;28233;55.748;48.752;2023-04-15T04:14:44;100426.63;;;-1.81;34.91
42603;BME280;28233;55.748;48.752;2023-04-15T04:16:48;100420.81;;;-1.78;34.88
42603;BME280;28233;55.748;48.752;2023-04-15T04:18:52;100427.63;;;-1.75;34.97
42603;BME280;28233;55.748;48.752;2023-04-15T04:20:56;100426.16;;;-1.71;34.79
42603;BME280;28233;55.748;48.752;2023-04-15T04:23:00;100430.63;;;-1.65;34.29
42603;BME280;28233;55.748;48.752;2023-04-15T04:25:04;100437.03;;;-1.59;34.18
42603;BME280;28233;55.748;48.752;2023-04-15T04:27:09;100432.91;;;-1.62;34.46
42603;BME280;28233;55.748;48.752;2023-04-15T04:29:13;100429.56;;;-1.57;34.59
42603;BME280;28233;55.748;48.752;2023-04-15T04:31:17;100431.38;;;-1.51;33.89
42603;BME280;28233;55.748;48.752;2023-04-15T04:33:21;100431.16;;;-1.50;33.91
42603;BME280;28233;55.748;48.752;2023-04-15T04:35:25;100437.38;;;-1.49;33.81
42603;BME280;28233;55.748;48.752;2023-04-15T04:37:30;100438.94;;;-1.41;33.98
42603;BME280;28233;55.748;48.752;2023-04-15T04:39:34;100441.22;;;-1.38;33.88
42603;BME280;28233;55.748;48.752;2023-04-15T04:41:38;100443.28;;;-1.34;33.98
42603;BME280;28233;55.748;48.752;2023-04-15T04:43:42;100441.94;;;-1.24;34.28
42603;BME280;28233;55.748;48.752;2023-04-15T04:45:46;100447.66;;;-1.14;34.04
42603;BME280;28233;55.748;48.752;2023-04-15T04:47:50;100446.59;;;-1.13;33.66
42603;BME280;28233;55.748;48.752;2023-04-15T04:49:54;100446.31;;;-1.05;33.89
42603;BME280;28233;55.748;48.752;2023-04-15T04:51:58;100453.97;;;-1.02;33.37
42603;BME280;28233;55.748;48.752;2023-04-15T04:54:03;100459.75;;;-0.98;33.27
42603;BME280;28233;55.748;48.752;2023-04-15T04:56:07;100457.41;;;-0.95;33.33
42603;BME280;28233;55.748;48.752;2023-04-15T04:58:11;100461.47;;;-0.86;33.79
42603;BME280;28233;55.748;48.752;2023-04-15T05:00:15;100456.81;;;-0.78;33.80
42603;BME280;28233;55.748;48.752;2023-04-15T05:02:19;100448.06;;;-0.74;33.61
42603;BME280;28233;55.748;48.752;2023-04-15T05:04:23;100453.19;;;-0.66;33.00
42603;BME280;28233;55.748;48.752;2023-04-15T05:06:27;100458.72;;;-0.60;32.45
42603;BME280;28233;55.748;48.752;2023-04-15T05:08:33;100458.88;;;-0.55;32.06
42603;BME280;28233;55.748;48.752;2023-04-15T05:10:37;100463.81;;;-0.52;31.95
42603;BME280;28233;55.748;48.752;2023-04-15T05:12:41;100469.94;;;-0.45;31.18
42603;BME280;28233;55.748;48.752;2023-04-15T05:14:45;100455.78;;;-0.40;30.72
42603;BME280;28233;55.748;48.752;2023-04-15T05:16:49;100453.47;;;-0.37;30.78
42603;BME280;28233;55.748;48.752;2023-04-15T05:18:53;100461.47;;;-0.30;31.24
42603;BME280;28233;55.748;48.752;2023-04-15T05:20:58;100460.19;;;-0.28;30.35
42603;BME280;28233;55.748;48.752;2023-04-15T05:23:02;100455.41;;;-0.26;30.05
42603;BME280;28233;55.748;48.752;2023-04-15T05:25:07;100460.56;;;-0.24;30.06
42603;BME280;28233;55.748;48.752;2023-04-15T05:27:12;100456.13;;;-0.18;30.28
42603;BME280;28233;55.748;48.752;2023-04-15T05:29:16;100467.69;;;-0.11;30.23
42603;BME280;28233;55.748;48.752;2023-04-15T05:31:20;100462.41;;;-0.06;29.83
42603;BME280;28233;55.748;48.752;2023-04-15T05:33:25;100464.44;;;-0.02;29.68
42603;BME280;28233;55.748;48.752;2023-04-15T05:35:29;100468.22;;;0.09;29.07
42603;BME280;28233;55.748;48.752;2023-04-15T05:37:34;100467.78;;;0.12;28.78
42603;BME280;28233;55.748;48.752;2023-04-15T05:39:38;100462.59;;;0.11;29.20
42603;BME280;28233;55.748;48.752;2023-04-15T05:41:42;100466.16;;;0.23;29.42
42603;BME280;28233;55.748;48.752;2023-04-15T05:43:45;100474.63;;;0.27;28.82
42603;BME280;28233;55.748;48.752;2023-04-15T05:45:49;100472.66;;;0.34;28.68
42603;BME280;28233;55.748;48.752;2023-04-15T05:47:53;100483.97;;;0.43;28.36
42603;BME280;28233;55.748;48.752;2023-04-15T05:49:58;100477.88;;;0.47;28.08
42603;BME280;28233;55.748;48.752;2023-04-15T05:52:02;100486.44;;;0.56;28.16
42603;BME280;28233;55.748;48.752;2023-04-15T05:54:06;100478.25;;;0.62;27.29
42603;BME280;28233;55.748;48.752;2023-04-15T05:56:10;100477.31;;;0.69;27.68
42603;BME280;28233;55.748;48.752;2023-04-15T05:58:14;100476.16;;;0.76;27.84
42603;BME280;28233;55.748;48.752;2023-04-15T06:00:18;100477.69;;;0.84;27.63
42603;BME280;28233;55.748;48.752;2023-04-15T06:02:22;100486.38;;;0.86;27.74
42603;BME280;28233;55.748;48.752;2023-04-15T06:04:27;100483.56;;;0.93;27.75
42603;BME280;28233;55.748;48.752;2023-04-15T06:06:31;100489.47;;;1.01;27.69
42603;BME280;28233;55.748;48.752;2023-04-15T06:08:35;100494.53;;;1.10;27.78
42603;BME280;28233;55.748;48.752;2023-04-15T06:10:39;100481.47;;;1.18;27.76
42603;BME280;28233;55.748;48.752;2023-04-15T06:12:43;100499.22;;;1.26;27.95
42603;BME280;28233;55.748;48.752;2023-04-15T06:14:47;100490.41;;;1.31;27.21
42603;BME280;28233;55.748;48.752;2023-04-15T06:16:51;100488.88;;;1.35;27.03
42603;BME280;28233;55.748;48.752;2023-04-15T06:18:55;100497.59;;;1.37;26.13
42603;BME280;28233;55.748;48.752;2023-04-15T06:20:59;100499.69;;;1.35;26.63
42603;BME280;28233;55.748;48.752;2023-04-15T06:23:03;100490.88;;;1.39;27.26
42603;BME280;28233;55.748;48.752;2023-04-15T06:25:07;100490.25;;;1.49;27.29
42603;BME280;28233;55.748;48.752;2023-04-15T06:27:11;100495.88;;;1.59;26.87
42603;BME280;28233;55.748;48.752;2023-04-15T06:29:15;100494.13;;;1.65;26.58
42603;BME280;28233;55.748;48.752;2023-04-15T06:31:19;100489.84;;;1.69;26.53
42603;BME280;28233;55.748;48.752;2023-04-15T06:33:24;100484.44;;;1.69;26.61
42603;BME280;28233;55.748;48.752;2023-04-15T06:35:28;100492.53;;;1.81;26.87
42603;BME280;28233;55.748;48.752;2023-04-15T06:37:31;100489.69;;;1.87;26.37
42603;BME280;28233;55.748;48.752;2023-04-15T06:39:35;100489.56;;;1.94;26.59
42603;BME280;28233;55.748;48.752;2023-04-15T06:41:40;100498.97;;;2.03;27.04
42603;BME280;28233;55.748;48.752;2023-04-15T06:43:44;100490.91;;;2.08;26.32
42603;BME280;28233;55.748;48.752;2023-04-15T06:45:48;100496.94;;;2.10;26.46
42603;BME280;28233;55.748;48.752;2023-04-15T06:47:52;100490.63;;;2.22;27.05
42603;BME280;28233;55.748;48.752;2023-04-15T06:49:56;100502.25;;;2.34;26.23
42603;BME280;28233;55.748;48.752;2023-04-15T06:52:00;100504.72;;;2.36;26.41
42603;BME280;28233;55.748;48.752;2023-04-15T06:54:04;100500.22;;;2.41;25.85
42603;BME280;28233;55.748;48.752;2023-04-15T06:56:09;100510.25;;;2.41;26.00
42603;BME280;28233;55.748;48.752;2023-04-15T06:58:13;100500.56;;;2.45;24.95
42603;BME280;28233;55.748;48.752;2023-04-15T07:00:17;100500.06;;;2.48;25.00
42603;BME280;28233;55.748;48.752;2023-04-15T07:02:22;100492.25;;;2.51;25.44
42603;BME280;28233;55.748;48.752;2023-04-15T07:04:26;100511.59;;;2.55;24.98
42603;BME280;28233;55.748;48.752;2023-04-15T07:06:33;100494.22;;;2.56;24.55
42603;BME280;28233;55.748;48.752;2023-04-15T07:08:38;100498.03;;;2.72;25.36
42603;BME280;28233;55.748;48.752;2023-04-15T07:10:42;100501.81;;;2.88;25.14
42603;BME280;28233;55.748;48.752;2023-04-15T07:12:47;100494.00;;;2.91;24.77
42603;BME280;28233;55.748;48.752;2023-04-15T07:14:51;100490.81;;;2.94;24.50
42603;BME280;28233;55.748;48.752;2023-04-15T07:16:55;100488.16;;;3.00;24.30
42603;BME280;28233;55.748;48.752;2023-04-15T07:19:00;100492.13;;;3.09;24.03
42603;BME280;28233;55.748;48.752;2023-04-15T07:21:04;100480.75;;;3.12;24.80
42603;BME280;28233;55.748;48.752;2023-04-15T07:23:08;100491.69;;;3.17;24.74
42603;BME280;28233;55.748;48.752;2023-04-15T07:25:12;100496.78;;;3.30;25.08
42603;BME280;28233;55.748;48.752;2023-04-15T07:27:16;100497.50;;;3.26;24.06
42603;BME280;28233;55.748;48.752;2023-04-15T07:29:20;100485.13;;;3.13;23.46
42603;BME280;28233;55.748;48.752;2023-04-15T07:31:24;100488.66;;;3.13;24.51
42603;BME280;28233;55.748;48.752;2023-04-15T07:33:28;100494.00;;;3.25;24.96
42603;BME280;28233;55.748;48.752;2023-04-15T07:35:32;100488.50;;;3.42;25.30
42603;BME280;28233;55.748;48.752;2023-04-15T07:37:36;100493.91;;;3.59;25.22
42603;BME280;28233;55.748;48.752;2023-04-15T07:39:40;100501.63;;;3.67;24.24
42603;BME280;28233;55.748;48.752;2023-04-15T07:41:45;100494.13;;;3.74;23.44
42603;BME280;28233;55.748;48.752;2023-04-15T07:43:49;100497.88;;;3.73;24.13
42603;BME280;28233;55.748;48.752;2023-04-15T07:45:53;100495.09;;;3.68;23.30
42603;BME280;28233;55.748;48.752;2023-04-15T07:47:58;100490.81;;;3.72;23.11
42603;BME280;28233;55.748;48.752;2023-04-15T07:50:02;100487.78;;;3.69;23.56
42603;BME280;28233;55.748;48.752;2023-04-15T07:52:06;100496.25;;;3.72;23.99
42603;BME280;28233;55.748;48.752;2023-04-15T07:54:10;100483.25;;;3.74;24.03
42603;BME280;28233;55.748;48.752;2023-04-15T07:56:13;100487.47;;;3.65;23.52
42603;BME280;28233;55.748;48.752;2023-04-15T07:58:17;100490.59;;;3.57;22.95
42603;BME280;28233;55.748;48.752;2023-04-15T08:00:21;100482.09;;;3.70;23.34
42603;BME280;28233;55.748;48.752;2023-04-15T08:02:26;100478.69;;;3.80;23.59
42603;BME280;28233;55.748;48.752;2023-04-15T08:04:30;100480.41;;;3.86;23.58
42603;BME280;28233;55.748;48.752;2023-04-15T08:06:35;100475.69;;;4.03;24.62
42603;BME280;28233;55.748;48.752;2023-04-15T08:08:42;100484.53;;;4.16;23.54
42603;BME280;28233;55.748;48.752;2023-04-15T08:10:46;100475.09;;;4.23;23.41
42603;BME280;28233;55.748;48.752;2023-04-15T08:12:53;100472.09;;;4.25;22.90
42603;BME280;28233;55.748;48.752;2023-04-15T08:14:57;100482.25;;;4.35;23.30
42603;BME280;28233;55.748;48.752;2023-04-15T08:17:01;100471.19;;;4.41;23.33
42603;BME280;28233;55.748;48.752;2023-04-15T08:19:06;100476.41;;;4.48;23.21
42603;BME280;28233;55.748;48.752;2023-04-15T08:21:10;100477.81;;;4.51;22.98
42603;BME280;28233;55.748;48.752;2023-04-15T08:23:14;100472.16;;;4.57;23.20
42603;BME280;28233;55.748;48.752;2023-04-15T08:25:18;100473.88;;;4.69;23.76
42603;BME280;28233;55.748;48.752;2023-04-15T08:27:22;100472.91;;;4.80;23.69
42603;BME280;28233;55.748;48.752;2023-04-15T08:29:26;100464.19;;;4.83;23.24
42603;BME280;28233;55.748;48.752;2023-04-15T08:31:31;100461.16;;;4.79;23.11
42603;BME280;28233;55.748;48.752;2023-04-15T08:33:35;100454.94;;;4.84;23.44
42603;BME280;28233;55.748;48.752;2023-04-15T08:35:39;100466.97;;;4.88;23.46
42603;BME280;28233;55.748;48.752;2023-04-15T08:37:44;100465.66;;;4.96;23.55
42603;BME280;28233;55.748;48.752;2023-04-15T08:39:47;100449.88;;;4.98;22.65
42603;BME280;28233;55.748;48.752;2023-04-15T08:44:03;100456.81;;;5.16;23.55
42603;BME280;28233;55.748;48.752;2023-04-15T08:46:08;100450.00;;;5.18;23.28
42603;BME280;28233;55.748;48.752;2023-04-15T08:48:14;100450.03;;;5.23;22.53
42603;BME280;28233;55.748;48.752;2023-04-15T08:50:21;100452.47;;;5.20;21.75
42603;BME280;28233;55.748;48.752;2023-04-15T08:52:29;100449.75;;;5.20;21.44
42603;BME280;28233;55.748;48.752;2023-04-15T08:54:34;100446.84;;;5.32;22.20
42603;BME280;28233;55.748;48.752;2023-04-15T08:56:39;100440.59;;;5.41;21.82
42603;BME280;28233;55.748;48.752;2023-04-15T08:58:43;100459.97;;;5.50;21.63
42603;BME280;28233;55.748;48.752;2023-04-15T09:00:48;100451.00;;;5.55;22.11
42603;BME280;28233;55.748;48.752;2023-04-15T09:02:52;100444.28;;;5.67;22.61
42603;BME280;28233;55.748;48.752;2023-04-15T09:04:57;100444.84;;;5.75;21.74
42603;BME280;28233;55.748;48.752;2023-04-15T09:07:01;100455.66;;;5.59;21.13
42603;BME280;28233;55.748;48.752;2023-04-15T09:09:05;100447.50;;;5.59;21.87
42603;BME280;28233;55.748;48.752;2023-04-15T09:11:09;100443.47;;;5.72;22.06
42603;BME280;28233;55.748;48.752;2023-04-15T09:13:13;100437.50;;;5.85;22.92
42603;BME280;28233;55.748;48.752;2023-04-15T09:15:17;100445.22;;;6.04;22.27
42603;BME280;28233;55.748;48.752;2023-04-15T09:17:21;100449.34;;;6.11;22.00
42603;BME280;28233;55.748;48.752;2023-04-15T09:19:27;100441.44;;;6.10;22.01
42603;BME280;28233;55.748;48.752;2023-04-15T09:21:31;100435.19;;;6.25;21.85
42603;BME280;28233;55.748;48.752;2023-04-15T09:23:38;100436.53;;;6.32;21.78
42603;BME280;28233;55.748;48.752;2023-04-15T09:25:42;100435.72;;;6.37;21.87
42603;BME280;28233;55.748;48.752;2023-04-15T09:28:00;100433.03;;;6.42;21.32
42603;BME280;28233;55.748;48.752;2023-04-15T09:30:07;100444.72;;;6.07;20.90
42603;BME280;28233;55.748;48.752;2023-04-15T09:32:14;100435.44;;;6.13;21.72
42603;BME280;28233;55.748;48.752;2023-04-15T09:34:19;100440.38;;;6.31;21.55
42603;BME280;28233;55.748;48.752;2023-04-15T09:36:24;100433.00;;;6.27;21.11
42603;BME280;28233;55.748;48.752;2023-04-15T09:38:29;100434.88;;;6.01;20.84
42603;BME280;28233;55.748;48.752;2023-04-15T09:40:35;100436.53;;;6.27;22.17
42603;BME280;28233;55.748;48.752;2023-04-15T09:42:56;100436.81;;;6.21;20.76
42603;BME280;28233;55.748;48.752;2023-04-15T09:45:13;100425.09;;;6.30;21.46
42603;BME280;28233;55.748;48.752;2023-04-15T09:49:32;100423.19;;;6.62;21.61
42603;BME280;28233;55.748;48.752;2023-04-15T09:51:36;100421.84;;;6.64;21.02
42603;BME280;28233;55.748;48.752;2023-04-15T09:53:40;100419.38;;;6.63;21.59
42603;BME280;28233;55.748;48.752;2023-04-15T09:55:54;100418.56;;;6.52;21.13
42603;BME280;28233;55.748;48.752;2023-04-15T09:57:58;100423.47;;;6.50;21.37
42603;BME280;28233;55.748;48.752;2023-04-15T10:00:03;100416.34;;;6.49;20.84
42603;BME280;28233;55.748;48.752;2023-04-15T10:02:10;100426.72;;;6.26;20.76
42603;BME280;28233;55.748;48.752;2023-04-15T10:04:16;100428.66;;;6.51;21.12
42603;BME280;28233;55.748;48.752;2023-04-15T10:06:25;100423.47;;;6.70;21.31
42603;BME280;28233;55.748;48.752;2023-04-15T10:08:31;100424.81;;;6.83;21.61
42603;BME280;28233;55.748;48.752;2023-04-15T10:10:36;100412.78;;;7.05;21.54
42603;BME280;28233;55.748;48.752;2023-04-15T10:12:41;100408.66;;;7.12;20.95
42603;BME280;28233;55.748;48.752;2023-04-15T10:14:51;100411.97;;;7.04;20.83
42603;BME280;28233;55.748;48.752;2023-04-15T10:17:00;100419.88;;;7.01;20.01
42603;BME280;28233;55.748;48.752;2023-04-15T10:19:05;100421.56;;;6.71;20.27
42603;BME280;28233;55.748;48.752;2023-04-15T10:21:12;100412.00;;;6.78;20.85
42603;BME280;28233;55.748;48.752;2023-04-15T10:23:22;100408.13;;;7.05;20.79
42603;BME280;28233;55.748;48.752;2023-04-15T10:25:27;100406.19;;;7.21;20.68
42603;BME280;28233;55.748;48.752;2023-04-15T10:27:32;100406.44;;;7.25;20.18
42603;BME280;28233;55.748;48.752;2023-04-15T10:29:36;100411.69;;;7.11;20.34
42603;BME280;28233;55.748;48.752;2023-04-15T10:31:41;100414.34;;;7.26;20.31
42603;BME280;28233;55.748;48.752;2023-04-15T10:33:46;100415.41;;;7.40;20.50
42603;BME280;28233;55.748;48.752;2023-04-15T10:35:52;100409.41;;;7.38;19.60
42603;BME280;28233;55.748;48.752;2023-04-15T10:37:57;100406.41;;;7.35;20.02
42603;BME280;28233;55.748;48.752;2023-04-15T10:40:28;100394.44;;;7.20;19.93
42603;BME280;28233;55.748;48.752;2023-04-15T10:42:34;100402.28;;;7.43;21.32
42603;BME280;28233;55.748;48.752;2023-04-15T10:44:42;100402.47;;;7.67;20.30
42603;BME280;28233;55.748;48.752;2023-04-15T10:46:47;100390.66;;;7.71;20.40
42603;BME280;28233;55.748;48.752;2023-04-15T10:48:52;100400.88;;;8.05;20.64
42603;BME280;28233;55.748;48.752;2023-04-15T10:50:56;100399.38;;;8.23;20.04